Live Oak, California
Current Conditions -  °F | °C
As of 3:10 PM on Thursday 20 Nov 2014 (Local Time) from KMYV Reporting Station
Overcast Overcast  
Wind Chill: 55°   Ceiling: 800
Heat Index: 55°   Visibility: 7mi
Dew Point: 52°   Wind: 6mph
Humidity: 89%   Direction: 100°E
Pressure: 30.02"   Gusts: NA
Location:  39.28°N, 121.66°W
Report Text: KMYV 202310Z AUTO 10005KT 7SM BKN008 BKN027 OVC080 13/11 A3002 RMK AO2 T01280111
Loading
Personal Weather Stations






























Interactive Weather Map New forecast layout! Learn more

10-Day Weather Forecast

Advertisements
Track Severe Weather on mobile